Tiempo atmosférico en la estación meteorológica de Écija, Sevilla (130 m.)



Fecha
DESCASC
Temp. máxima en grados centígrados (hora)
DESCASC
Temp. mínima en grados centígrados (hora)
DESCASC
Temp. media en grados centígrados
DESCASC
Racha de viento máxima en m/sg (hora)
DESCASC
Velocidad máxima media en intervalos de 10 minutos(hora)
DESCASC
Precipitaciones diarias en mm
DESCASC
Precipitaciones de 00:00 a 06:00 en mm
DESCASC
Precipitaciones de 06:00 a 12:00 en mm
DESCASC
Precipitaciones de 12:00 a 18:00 en mm
DESCASC
Precipitaciones de 18:00 a 24:00 en mm
DESCASC
27-01-2020 14.6 (15:30) 2.3 (08:30) 8.5 3.61 (16:40) 2.22 (08:30) 0.1 0.1 0 0 0
26-01-2020 14.5 (17:10) 6.6 (23:40) 10.5 4.72 (00:30) 3.06 (00:20) 0 0 0 0 0
25-01-2020 12.6 (16:30) 8.6 (00:00) 10.6 5.28 (18:10) 3.33 (12:10) 24.4 5.6 8.3 3.8 6.7
24-01-2020 15.8 (13:10) 8.6 (00:00) 12.2 7.22 (13:50) 5.28 (13:50) 11.3 0.1 0 1.7 9.5
23-01-2020 15.2 (15:20) 8.6 (00:00) 11.9 9.44 (15:20) 6.39 (16:00) 8.3 0.2 0.6 0 7.5
22-01-2020 14.5 (16:30) 7.8 (00:00) 11.2 6.94 (16:30) 4.72 (16:30) 8.8 4.5 3 0 1.3
21-01-2020 12.5 (14:10) 6.4 (00:00) 9.5 11.11 (12:30) 6.67 (13:10) 0 0 0 0 0
20-01-2020 12 (15:40) 5.6 (00:00) 8.8 14.72 (12:40) 8.61 (12:40) 0 0 0 0 0
19-01-2020 14.2 (15:10) 7.7 (00:00) 10.9 10.28 (16:00) 6.11 (12:00) 0.5 0 0 0.5 0
18-01-2020 15.5 (20:30) 6.9 (00:00) 11.2 11.94 (18:20) 7.5 (18:20) 7.3 0 2.2 2 3.1
17-01-2020 18.1 (17:10) 5.1 (00:00) 11.6 3.06 (02:40) 2.22 (02:40) 0.1 0 0.1 0 0
16-01-2020 19.1 (16:00) 2.8 (00:00) 11 4.44 (16:10) 3.06 (21:30) 0 0 0 0 0
15-01-2020 18.3 (16:40) 2.9 (00:00) 10.6 3.33 (15:30) 1.67 (22:40) 0 0 0 0 0
14-01-2020 15.7 (16:50) 1.5 (00:00) 8.6 3.33 (15:30) 2.78 (19:10) 0 0 0 0 0
13-01-2020 15.8 (16:20) -0.2 (00:00) 7.8 3.33 (14:30) 2.5 (18:00) 0 0 0 0 0
12-01-2020 16.2 (16:10) 0.8 (08:20) 8.5 3.89 (14:20) 1.67 (13:20) 0 0 0 0 0
11-01-2020 16.1 (16:10) 2.2 (00:00) 9.2 4.72 (13:50) 2.5 (12:50) 0 0 0 0 0
10-01-2020 15.9 (16:30) 4.4 (00:00) 10.1 7.5 (16:20) 4.72 (16:20) 0 0 0 0 0
09-01-2020 16 (17:20) 1.9 (00:00) 8.9 -- (--) -- (--) 0 0 0 0 0
08-01-2020 18.6 (17:20) 0.8 (00:00) 9.7 -- (--) -- (--) 0 0 0 0 0
07-01-2020 18.3 (17:00) 1.6 (00:00) 9.9 -- (--) -- (--) 0 0 0 0 0
06-01-2020 16.6 (17:30) 0.7 (00:00) 8.7 -- (--) -- (--) 0 0 0 0 0
05-01-2020 15.6 (15:50) 4.4 (00:00) 10 -- (--) -- (--) 0 0 0 0 0
04-01-2020 13.7 (15:50) 4.7 (00:00) 9.2 -- (--) -- (--) 0 0 0 0 0
03-01-2020 14.4 (17:10) 3.1 (00:00) 8.7 -- (--) -- (--) 0 0 0 0 0
02-01-2020 16.6 (15:30) 4.1 (00:00) 10.4 -- (--) -- (--) 0.1 0 0 0.1 0
01-01-2020 17.5 (17:00) 3.2 (00:00) 10.4 -- (--) -- (--) 0 0 0 0 0
31-12-2019 18.5 (16:40) 4 (00:00) 11.3 -- (--) -- (--) 0 0 0 0 0
30-12-2019 17.6 (15:50) 4.9 (00:00) 11.3 -- (--) -- (--) 0 0 0 0 0

Gráficas

Temp. máximas Temp. mínimas Temp. medias Precipitaciones Rachas de viento máximas Velocidades máximas media en intervalos de 10 minutos

Datos horarios

Fecha y hora oficial Temperatura (ºC) Velocidad del viento (km/h) Dirección del viento Racha (km/h) Dirección de racha Precipitación (mm) Presión (hPa) Tendencia (hPa) Humedad (%)
2020-01-28 23:00:00 10.9 0 Calma 6 Sudeste 0 1012.1 0.1 98
2020-01-28 22:00:00 11.4 6 Sudeste 7 Sudeste 0 1012.1 0.7 97
2020-01-28 21:00:00 11.3 2 Nordeste 7 Oeste 0 1012.2 0.8 96
2020-01-28 20:00:00 12.1 6 Sudoeste 9 Oeste 0 1012 0.8 92
2020-01-28 19:00:00 13.2 6 Sur 9 Noroeste 0 1011.4 0.3 90
2020-01-28 18:00:00 15.1 5 Noroeste 12 Noroeste 0 1011.4 -0.1 79
2020-01-28 17:00:00 15.2 12 Noroeste 16 Noroeste 0 1011.2 -0.9 79
2020-01-28 16:00:00 15.5 9 Noroeste 15 Noroeste 0 1011.1 -1.7 79
2020-01-28 15:00:00 15.7 10 Noroeste 14 Noroeste 0 1011.5 -2 76
2020-01-28 14:00:00 15.7 8 Noroeste 13 Noroeste 0 1012.1 -1.4 75
2020-01-28 13:00:00 16 2 Sur 8 Sur 0 1012.8 0.1 80
2020-01-28 12:00:00 14.2 0 Calma 6 Este 0 1013.5 0.9 89
2020-01-28 11:00:00 12.4 2 Sudoeste 7 Sur 0 1013.5 1.6 92
2020-01-28 10:00:00 11.3 4 Sur 6 Sur 0 1012.7 1.3 95
2020-01-28 09:00:00 10.7 0 Calma 3 Este 0 1012.6 1.1 99
2020-01-28 08:00:00 10.6 0 Calma 5 Sudeste 0 1011.9 0.3 97
2020-01-28 07:00:00 10.4 4 Sudeste 6 Sudeste 0 1011.4 -0.5 98
2020-01-28 06:00:00 10.3 2 Sur 4 Sudeste 0 1011.5 -0.6 98
2020-01-28 05:00:00 10.1 3 Sur 6 Sudeste 0 1011.6 -0.9 99
2020-01-28 04:00:00 10.1 4 Sur 6 Sur 0 1011.9 -0.7 99
2020-01-28 03:00:00 9.9 5 Sur 6 Sur 0 1012.1 -0.5 99
2020-01-28 02:00:00 9.4 4 Sur 7 Sudeste 0 1012.5 -0.3 99
2020-01-28 01:00:00 9.7 4 Sur 7 Sudeste 0 1012.6 0.2 99
2020-01-28 00:00:00 10.2 3 Sudoeste 6 Sudeste 0 1012.6 0.4 99
2020-01-27 23:00:00 10 2 Sudeste 8 Sudeste 0 1012.8 0.8 99
2020-01-27 22:00:00 9.9 3 Sur 8 Sudoeste 0 1012.4 0.8 97
2020-01-27 21:00:00 11 6 Sudoeste 8 Sudoeste 0 1012.2 0.9 95
2020-01-27 20:00:00 11.4 0 Calma 4 Noroeste 0 1012 1 91
2020-01-27 19:00:00 12.4 0 Calma 6 Nordeste 0 1011.6 0.5 91
2020-01-27 18:00:00 13.2 2 Norte 9 Norte 0 1011.3 0 82
2020-01-27 17:00:00 13.4 6 Norte 13 Noroeste 0 1011 -1.2 79
2020-01-27 16:00:00 14.3 6 Noroeste 12 Norte 0 1011.1 -2.2 77
2020-01-27 15:00:00 14.3 4 Noroeste 10 Oeste 0 1011.3 -2.4 73
2020-01-27 14:00:00 14.1 3 Noroeste 9 Este 0 1012.2 -1.6 71
2020-01-27 13:00:00 12 5 Este 11 Este 0 1013.3 -0.2 80
2020-01-27 12:00:00 10.4 5 Este 10 Sudeste 0 1013.7 0.5 86
2020-01-27 11:00:00 8 3 Este 5 Este 0 1013.8 0.9 97
2020-01-27 10:00:00 5.2 2 Noroeste 4 Sudeste 0 1013.5 1.4 99
2020-01-27 09:00:00 3.7 3 Sudoeste 11 Sudoeste 0 1013.2 1.3 99
2020-01-27 08:00:00 2.9 3 Sudoeste 4 Sudoeste 0 1012.9 0.9 99
2020-01-27 07:00:00 3.7 0 Calma 4 Sudeste 0 1012.1 -0.1 99
2020-01-27 06:00:00 3.9 2 Sudoeste 4 Sur 0 1011.9 -0.4 99
2020-01-27 05:00:00 3.9 0 Calma 5 Sudeste 0.1 1012 -0.7 99
2020-01-27 04:00:00 4.9 2 Sur 6 Sudeste 0 1012.2 -0.7 99
2020-01-27 03:00:00 5.3 4 Sudeste 6 Sudeste 0 1012.3 -0.9 99
2020-01-27 02:00:00 5.5 2 Sur 5 Sur 0 1012.7 -0.3 99
2020-01-27 01:00:00 5.6 3 Sur 8 Sudeste 0 1012.9 0.2 99
2020-01-27 00:00:00 6.6 2 Sudeste 5 Sudeste 0 1013.2 0.9 99
2020-01-26 23:00:00 7.6 0 Calma 7 Sudeste 0 1013 1 99
2020-01-26 22:00:00 8.5 3 Sur 5 Sur 0 1012.7 1.4 97
2020-01-26 21:00:00 8.6 4 Sudeste 6 Sudeste 0 1012.3 1.4 97
2020-01-26 20:00:00 9.5 5 Sudeste 8 Sudoeste 0 1012 1.2 96
2020-01-26 19:00:00 11.6 6 Sudoeste 7 Sudoeste 0 1011.3 0.5 87
2020-01-26 18:00:00 13.3 3 Oeste 6 Noroeste 0 1010.9 -0.1 77
2020-01-26 17:00:00 14.3 2 Sudoeste 12 Oeste 0 1010.8 -0.9 72
2020-01-26 16:00:00 13.4 3 Noroeste 9 Noroeste 0 1010.8 -1.4 79
2020-01-26 15:00:00 12.7 4 Oeste 11 Oeste 0 1011 -1.3 79
2020-01-26 14:00:00 12.1 3 Oeste 13 Noroeste 0 1011.7 0 83
2020-01-26 13:00:00 11 5 Noroeste 11 Noroeste 0 1012.2 1.3 90
2020-01-26 12:00:00 10.6 3 Noroeste 12 Oeste 0 1012.3 2.3 94
2020-01-26 11:00:00 10.1 5 Sudoeste 10 Sudoeste 0 1011.7 2.5 96
2020-01-26 10:00:00 9.6 4 Oeste 9 Oeste 0 1010.9 2.5 99
2020-01-26 09:00:00 9.4 3 Sur 11 Sudoeste 0 1010 2.4 99
2020-01-26 08:00:00 9.8 3 Oeste 8 Sudoeste 0 1009.2 1.6 98
2020-01-26 07:00:00 10 3 Oeste 9 Oeste 0 1008.4 1 99
2020-01-26 06:00:00 10 5 Oeste 9 Oeste 0 1007.6 0.7 99
2020-01-26 05:00:00 10.2 3 Sudoeste 7 Oeste 0 1007.6 1 99
2020-01-26 04:00:00 10.3 4 Sudoeste 14 Oeste 0 1007.4 1.3 99
2020-01-26 03:00:00 10.5 6 Oeste 15 Oeste 0 1006.9 1.1 99
2020-01-26 02:00:00 10.4 0 Calma 9 Oeste 0 1006.6 1.2 99
2020-01-26 01:00:00 10.6 5 Oeste 17 Oeste 0 1006.1 1.3 99
2020-01-26 00:00:00 9.9 4 Oeste 10 Sudoeste 0 1005.8 1.4 99
2020-01-25 23:00:00 10.5 0 Calma 4 Sudeste 0 1005.4 1.7 99
2020-01-25 22:00:00 11 0 Calma 8 Oeste 0.1 1004.8 1.9 98
2020-01-25 21:00:00 11 5 Oeste 8 Oeste 0 1004.4 2.4 98
2020-01-25 20:00:00 11 5 Noroeste 15 Oeste 0.3 1003.7 2.1 98
2020-01-25 19:00:00 11.4 8 Noroeste 19 Norte 6.3 1002.9 1.5 97
2020-01-25 18:00:00 11.8 5 Nordeste 13 Norte 0.8 1002 0.5 98
2020-01-25 17:00:00 12.4 5 Este 9 Este 0 1001.6 -0.5 91
2020-01-25 16:00:00 12.4 4 Sudeste 8 Sudeste 0 1001.4 -1.4 90
2020-01-25 15:00:00 12 6 Sudeste 10 Sudeste 0 1001.5 -2 91
2020-01-25 14:00:00 11.6 6 Sur 12 Sudeste 0.1 1002.1 -0.8 93
2020-01-25 13:00:00 10.7 6 Sur 17 Sudoeste 2.9 1002.8 0.4 96
2020-01-25 12:00:00 10.9 6 Sur 16 Sudoeste 1 1003.5 0.9 96
2020-01-25 11:00:00 10.3 6 Sudeste 11 Sudeste 0.8 1002.9 1.2 99
2020-01-25 10:00:00 10 0 Calma 8 Sur 2.6 1002.4 1.1 99
2020-01-25 09:00:00 9.7 4 Sur 12 Sudeste 2.2 1002.6 0.6 99
2020-01-25 08:00:00 9.6 8 Este 13 Sudeste 0.3 1001.7 -0.1 99
2020-01-25 07:00:00 9.6 8 Este 11 Este 1.4 1001.3 -0.7 99
2020-01-25 06:00:00 9.6 7 Sudoeste 13 Sudoeste 4.6 1002 -0.4 99
2020-01-25 05:00:00 9.7 4 Sudoeste 6 Sur 0.5 1001.8 -0.8 99
2020-01-25 04:00:00 9.5 4 Sur 6 Sur 0.5 1002 -1.3 99
2020-01-25 03:00:00 8.7 4 Sudeste 13 Sudeste 0 1002.4 -1 98
2020-01-25 02:00:00 9.5 9 Sudoeste 11 Sudoeste 0 1002.6 -0.7 95
2020-01-25 01:00:00 10.2 5 Sudoeste 11 Sudoeste 0 1003.3 0 96
2020-01-25 00:00:00 11 6 Sur 24 Sur 0 1003.4 0.3 93
2020-01-24 23:00:00 11.1 7 Sur 12 Sur 0.4 1003.3 0.2 96
2020-01-24 22:00:00 11.2 2 Este 9 Sudeste 4 1003.3 0.2 99
2020-01-24 21:00:00 11.3 7 Este 11 Este 0.1 1003.1 0.2 99
2020-01-24 20:00:00 11.4 6 Este 10 Este 2.4 1003.1 -0.1 99
2020-01-24 19:00:00 12 5 Sur 7 Sur 2.6 1003.1 -0.2 95
2020-01-24 18:00:00 12.7 0 Calma 7 Sudeste 0.6 1002.9 -0.7 93
2020-01-24 17:00:00 13.2 5 Sur 10 Sur 0.9 1003.2 -1 85
2020-01-24 16:00:00 14 4 Sur 9 Sudoeste 0.2 1003.3 -1.8 79
2020-01-24 15:00:00 14.6 5 Sur 22 Sur 0 1003.6 -2.4 78
2020-01-24 14:00:00 15.2 17 Sur 26 Sur 0 1004.2 -1.5 73
2020-01-24 13:00:00 15.6 11 Sur 19 Sudeste 0 1005.1 -0.6 68
2020-01-24 12:00:00 13.2 9 Sudeste 15 Sudeste 0 1006 0.7 81
2020-01-24 11:00:00 11.3 6 Sudeste 11 Este 0 1005.7 0.8 89
2020-01-24 10:00:00 9.9 5 Sudeste 7 Sudeste 0 1005.7 0.8 94
2020-01-24 09:00:00 8.8 4 Sur 9 Sudeste 0 1005.3 0.8 96
2020-01-24 08:00:00 8.7 3 Sudeste 9 Sudeste 0 1004.9 0.5 96
2020-01-24 07:00:00 9.3 4 Sudeste 6 Sudeste 0 1004.9 0.2 94
2020-01-24 06:00:00 9.2 5 Sudeste 9 Sudeste 0 1004.5 -0.2 93
2020-01-24 05:00:00 9.4 4 Sudeste 8 Este 0 1004.4 -0.4 92
2020-01-24 04:00:00 9.9 3 Este 9 Sur 0 1004.7 0 95
2020-01-24 03:00:00 10 0 Calma 3 Sur 0 1004.7 -0.1 98
2020-01-24 02:00:00 9.7 0 Calma 3 Oeste 0 1004.8 0.3 99
2020-01-24 01:00:00 10 0 Calma 4 Sudeste 0.1 1004.7 1.3 99
2020-01-24 00:00:00 9.9 3 Sudeste 12 Este 1.4 1004.8 1.3 99
2020-01-23 23:00:00 10.1 7 Sudeste 18 Sur 0.4 1004.5 1.3 99
2020-01-23 22:00:00 10.8 11 Sur 17 Sudoeste 2.4 1003.4 0.5 92
2020-01-23 21:00:00 10.5 2 Sur 8 Sudeste 0.7 1003.5 1.6 97
2020-01-23 20:00:00 10.6 7 Sudoeste 15 Sur 2.3 1003.2 1.7 97
2020-01-23 19:00:00 11.9 8 Sudoeste 22 Sur 0.3 1002.9 1.7 89
2020-01-23 18:00:00 13 11 Sudeste 24 Sudeste 0 1001.9 0.4 77
2020-01-23 17:00:00 13.4 17 Sudeste 31 Sudeste 0 1001.5 -0.7 75
2020-01-23 16:00:00 14.1 23 Sudeste 34 Sudeste 0 1001.2 -2 72
2020-01-23 15:00:00 14.8 18 Sudeste 27 Sudeste 0 1001.5 -1.5 71
2020-01-23 14:00:00 13.6 13 Sudeste 21 Sudeste 0 1002.2 -0.7 76
2020-01-23 13:00:00 12 14 Sudeste 29 Sudeste 0 1003.2 0.7 85
2020-01-23 12:00:00 12.3 17 Sudeste 28 Sudeste 0 1003 1 83
2020-01-23 11:00:00 11.8 14 Sudeste 24 Sur 0.2 1002.9 1.3 82
2020-01-23 10:00:00 10.1 3 Sudeste 14 Sudeste 0.2 1002.5 1.2 93
2020-01-23 09:00:00 9.2 2 Nordeste 6 Este 0.1 1002 0.8 94
2020-01-23 08:00:00 8.8 6 Este 11 Sudeste 0 1001.6 0.3 94
2020-01-23 07:00:00 9 5 Sudeste 9 Este 0.1 1001.3 -0.3 93
2020-01-23 06:00:00 9.1 3 Sudeste 6 Sudeste 0 1001.2 -0.5 92
2020-01-23 05:00:00 9 3 Sur 9 Este 0 1001.3 -0.5 93
2020-01-23 04:00:00 8.7 5 Sudeste 11 Sudeste 0 1001.6 -0.4 93
2020-01-23 03:00:00 9 4 Sudeste 9 Sudeste 0 1001.7 -0.4 95
2020-01-23 02:00:00 9.1 4 Sudeste 10 Sudeste 0 1001.8 -0.2 95
2020-01-23 01:00:00 9.3 3 Este 5 Sudeste 0.2 1002 0.4 95
2020-01-23 00:00:00 9.5 3 Este 4 Sudeste 1.2 1002.1 0.5 97
2020-01-22 23:00:00 9.7 0 Calma 6 Sudoeste 0.1 1002 0.7 93
2020-01-22 22:00:00 10.1 6 Sudoeste 10 Sudoeste 0 1001.6 0.9 89
2020-01-22 21:00:00 10.8 2 Sudeste 14 Sudoeste 0 1001.6 1.2 87
2020-01-22 20:00:00 11.2 4 Este 20 Sudeste 0 1001.3 1.2 85
2020-01-22 19:00:00 11.8 12 Sur 21 Sur 0 1000.7 0.9 76
2020-01-22 18:00:00 12.3 8 Sudeste 17 Sur 0 1000.4 0.2 80
2020-01-22 17:00:00 13.3 13 Sudeste 25 Sudeste 0 1000.1 -0.8 71
2020-01-22 16:00:00 14 11 Este 21 Sudeste 0 999.8 -1.7 72
2020-01-22 15:00:00 13.4 14 Sudeste 23 Este 0 1000.2 -1.9 74
2020-01-22 14:00:00 14.2 16 Sudeste 24 Sudeste 0 1000.9 -1.1 73
2020-01-22 13:00:00 12.7 9 Este 16 Este 0 1001.5 0 81
2020-01-22 12:00:00 10.4 8 Sudeste 12 Este 0 1002.1 0.8 89
2020-01-22 11:00:00 9.4 4 Este 8 Nordeste 0 1002 1.3 92
2020-01-22 10:00:00 8.2 0 Calma 7 Este 0.6 1001.5 1.5 99
2020-01-22 09:00:00 8 3 Este 9 Este 0.6 1001.3 1.4 99
2020-01-22 08:00:00 8 5 Sudeste 11 Este 0.4 1000.7 0.8 99
2020-01-22 07:00:00 7.9 6 Este 14 Sudeste 1.4 1000 0 99
2020-01-22 06:00:00 8 8 Sudeste 18 Este 1.2 999.9 -0.2 99
2020-01-22 05:00:00 8 8 Sudeste 13 Este 0.4 999.9 0 99
2020-01-22 04:00:00 8 6 Este 10 Este 1.1 1000 0.2 99
2020-01-22 03:00:00 7.9 7 Este 12 Sudeste 1.2 1000.1 0.3 99
2020-01-22 02:00:00 8.1 8 Sudeste 14 Sudeste 0.2 999.9 0.6 97
2020-01-22 01:00:00 8.2 9 Este 13 Este 0.4 999.8 0.8 96
2020-01-22 00:00:00 8.2 6 Sudeste 9 Sudeste 0 999.8 0.9 88
2020-01-21 23:00:00 8.7 3 Sudeste 10 Este 0 999.3 0.6 82
2020-01-21 22:00:00 9.4 4 Este 9 Nordeste 0 999 0.6 77
2020-01-21 21:00:00 8.9 0 Calma 9 Este 0 998.9 0.8 78
2020-01-21 20:00:00 10.3 5 Nordeste 13 Nordeste 0 998.7 1.3 70
2020-01-21 19:00:00 10.8 6 Nordeste 17 Este 0 998.4 1 67
2020-01-21 18:00:00 11.5 12 Nordeste 21 Este 0 998.1 0.2 62
2020-01-21 17:00:00 11.6 8 Nordeste 21 Nordeste 0 997.4 -1.1 61
2020-01-21 16:00:00 11.6 9 Nordeste 23 Nordeste 0 997.4 -1.6 61
2020-01-21 15:00:00 11.7 18 Nordeste 29 Este 0 997.9 -1.7 59
2020-01-21 14:00:00 12 17 Nordeste 37 Este 0 998.5 -1.5 56
2020-01-21 13:00:00 11.3 23 Nordeste 40 Nordeste 0 999 -0.9 59
2020-01-21 12:00:00 10.5 16 Nordeste 27 Nordeste 0 999.6 -0.4 63
2020-01-21 11:00:00 10 9 Este 14 Este 0 1000 0 70
2020-01-21 10:00:00 7.8 4 Norte 10 Nordeste 0 999.9 0.3 77
2020-01-21 09:00:00 7.8 3 Nordeste 19 Este 0 1000 0.4 74
2020-01-21 08:00:00 7.9 13 Nordeste 23 Este 0 1000 0 72
2020-01-21 07:00:00 6.4 4 Noroeste 9 Nordeste 0 999.6 -0.8 81
2020-01-21 06:00:00 7.7 6 Nordeste 23 Este 0 999.6 -0.9 75
2020-01-21 05:00:00 8.7 10 Nordeste 23 Nordeste 0 1000 -1 70
2020-01-21 04:00:00 9.1 12 Nordeste 19 Nordeste 0 1000.4 -0.9 69
2020-01-21 03:00:00 8.8 8 Nordeste 22 Nordeste 0 1000.5 -1.2 72
2020-01-21 02:00:00 9.3 14 Nordeste 22 Nordeste 0 1001 -0.8 69
2020-01-21 01:00:00 9.4 12 Nordeste 20 Este 0 1001.3 0 68
2020-01-21 00:00:00 9.6 12 Nordeste 18 Nordeste 0 1001.7 0.7 67
2020-01-20 23:00:00 10 12 Nordeste 25 Nordeste 0 1001.8 0.8 65
2020-01-20 22:00:00 10.3 14 Nordeste 33 Este 0 1001.3 0.9 62
2020-01-20 21:00:00 10.4 18 Nordeste 34 Nordeste 0 1001 0.8 62
2020-01-20 20:00:00 10.5 19 Nordeste 38 Nordeste 0 1001 1 60
2020-01-20 19:00:00 10.8 24 Nordeste 37 Nordeste 0 1000.4 0.6 57
2020-01-20 18:00:00 11.1 15 Nordeste 37 Nordeste 0 1000.2 0 56
2020-01-20 17:00:00 11.4 18 Nordeste 42 Nordeste 0 1000 -0.9 54
2020-01-20 16:00:00 11.8 23 Nordeste 35 Nordeste 0 999.8 -1.9 53
2020-01-20 15:00:00 11.3 23 Nordeste 41 Este 0 1000.2 -2.4 52
2020-01-20 14:00:00 10.1 18 Nordeste 43 Nordeste 0 1000.9 -1.7 55
2020-01-20 13:00:00 9.4 26 Este 53 Nordeste 0 1001.7 -1.4 55
2020-01-20 12:00:00 8.6 26 Este 49 Nordeste 0 1002.6 -0.5 61
2020-01-20 11:00:00 8 17 Nordeste 32 Este 0 1002.6 -0.7 57
2020-01-20 10:00:00 6.8 17 Este 37 Este 0 1003.1 -0.1 62
2020-01-20 09:00:00 5.9 21 Este 45 Este 0 1003.1 -0.5 62
2020-01-20 08:00:00 6.9 23 Nordeste 39 Nordeste 0 1003.3 -0.5 59
2020-01-20 07:00:00 6.8 21 Este 40 Este 0 1003.2 -1 58
2020-01-20 06:00:00 6.9 20 Este 32 Este 0 1003.6 -1 56
2020-01-20 05:00:00 5.7 15 Este 35 Nordeste 0 1003.8 -0.8 70
2020-01-20 04:00:00 7.3 18 Nordeste 32 Este 0 1004.2 -1.1 57
2020-01-20 03:00:00 6.9 5 Nordeste 33 Nordeste 0 1004.6 -0.4 68
2020-01-20 02:00:00 7.9 24 Nordeste 40 Nordeste 0 1004.6 0.2 65
2020-01-20 01:00:00 7.9 21 Nordeste 35 Nordeste 0 1005.3 0.8 70
2020-01-20 00:00:00 7.8 13 Nordeste 27 Nordeste 0 1005 0.9 73
2020-01-19 23:00:00 7.9 8 Nordeste 30 Este 0 1004.4 0.2 74
2020-01-19 22:00:00 8.3 8 Nordeste 30 Nordeste 0 1004.5 1 74
2020-01-19 21:00:00 9.2 15 Nordeste 28 Nordeste 0 1004.1 0.6 68
2020-01-19 20:00:00 10.4 13 Nordeste 30 Nordeste 0 1004.2 0.6 63
2020-01-19 19:00:00 11.4 8 Nordeste 23 Nordeste 0 1003.5 -0.7 61
2020-01-19 18:00:00 12.3 5 Nordeste 21 Este 0 1003.5 -0.2 71
2020-01-19 17:00:00 12.6 13 Nordeste 33 Nordeste 0.2 1003.6 -1.1 68
2020-01-19 16:00:00 11.4 16 Nordeste 37 Nordeste 0.3 1004.2 -1.2 79
2020-01-19 15:00:00 13.9 9 Nordeste 17 Nordeste 0 1003.7 -2.7 62
2020-01-19 14:00:00 13.2 6 Nordeste 28 Norte 0 1004.7 -1.7 63
2020-01-19 13:00:00 13.2 17 Norte 31 Norte 0 1005.4 -1 69
2020-01-19 12:00:00 12.9 22 Noroeste 30 Norte 0 1006.4 -0.1 76
2020-01-19 11:00:00 11.8 18 Noroeste 26 Noroeste 0 1006.4 0 80
2020-01-19 10:00:00 10.1 13 Noroeste 17 Noroeste 0 1006.4 0 87
2020-01-19 09:00:00 9 10 Oeste 18 Oeste 0 1006.5 0.1 91
2020-01-19 08:00:00 8.9 11 Oeste 19 Oeste 0 1006.4 -0.5 91
2020-01-19 07:00:00 8.6 12 Oeste 18 Oeste 0 1006.4 -1.2 94
2020-01-19 06:00:00 8.9 12 Oeste 20 Oeste 0 1006.4 -1.9 96
2020-01-19 05:00:00 9.7 18 Oeste 31 Oeste 0 1006.9 -1.1 94
2020-01-19 04:00:00 10.2 13 Oeste 18 Oeste 0 1007.6 -2.2 98
2020-01-19 03:00:00 11.2 10 Oeste 24 Oeste 0 1008.3 -1.7 98
2020-01-19 02:00:00 11.9 21 Sudoeste 26 Sudoeste 0 1008 -1.6 96
2020-01-19 01:00:00 12.9 14 Oeste 22 Oeste 0 1009.8 0.1 97
2020-01-19 00:00:00 13.3 13 Noroeste 32 Oeste 0 1010 -0.5 98
2020-01-18 23:00:00 15.1 17 Oeste 33 Oeste 0 1009.6 -1.4 97
2020-01-18 22:00:00 15.2 17 Oeste 32 Sudoeste 0.1 1009.7 -1.3 99
2020-01-18 21:00:00 13.1 4 Oeste 29 Oeste 2.7 1010.5 -0.8 99
2020-01-18 20:00:00 15.2 18 Oeste 40 Sudoeste 0.2 1011 -1 99
2020-01-18 19:00:00 15.1 25 Sudoeste 43 Sudoeste 0.1 1011 -1.9 99
2020-01-18 18:00:00 14.9 22 Sudoeste 36 Sudoeste 0.4 1011.3 -1.9 99
2020-01-18 17:00:00 14.9 22 Sudoeste 33 Sudoeste 1 1012 -2.6 99
2020-01-18 16:00:00 14.9 14 Sudoeste 21 Sudoeste 0.6 1012.9 -3 99
2020-01-18 15:00:00 14.5 10 Sur 15 Sudoeste 0 1013.2 -4 91
2020-01-18 14:00:00 13.2 4 Sur 12 Sudeste 0 1014.6 -2.9 89
2020-01-18 13:00:00 12.1 6 Sudeste 10 Sur 0 1015.9 -1.8 94
2020-01-18 12:00:00 9.8 5 Sur 9 Sudeste 0.8 1017.2 0.2 99
2020-01-18 11:00:00 9.3 5 Sudeste 17 Sudoeste 1 1017.5 0.9 98
2020-01-18 10:00:00 9.2 2 Sur 6 Sudoeste 0.4 1017.7 1.7 95
2020-01-18 09:00:00 8.6 4 Sur 5 Sudeste 0 1017 1 95
2020-01-18 08:00:00 8.3 3 Noroeste 6 Norte 0 1016.6 0.2 95
2020-01-18 07:00:00 7.7 2 Oeste 7 Sudoeste 0 1016 -1 97
2020-01-18 06:00:00 7.5 0 Calma 6 Sudeste 0 1016 -1.1 97
2020-01-18 05:00:00 7.4 0 Calma 5 Sur 0 1016.4 -0.9 97
2020-01-18 04:00:00 7.1 3 Sur 8 Sudeste 0 1017 -0.8 98
2020-01-18 03:00:00 7.1 0 Calma 3 Sudeste 0 1017.1 -0.8 97
2020-01-18 02:00:00 7.6 0 Calma 6 Sur 0 1017.3 -0.7 98
2020-01-18 01:00:00 7.5 5 Sur 7 Sudeste 0 1017.8 -0.4 95
2020-01-18 00:00:00 8.3 0 Calma 8 Sudoeste 0 1017.9 0.1 88
2020-01-17 23:00:00 9.7 0 Calma 6 Sudeste 0 1018 0.2 91
2020-01-17 22:00:00 10.1 4 Sur 7 Sur 0 1018.2 1 88
2020-01-17 21:00:00 10.3 0 Calma 3 Sur 0 1017.8 0.9 90
2020-01-17 20:00:00 12.1 2 Oeste 8 Sudoeste 0 1017.8 1.2 84
2020-01-17 19:00:00 13.8 2 Sur 5 Oeste 0 1017.2 0.4 76
2020-01-17 18:00:00 16.7 0 Calma 7 Oeste 0 1016.9 -0.3 71
2020-01-17 17:00:00 17.8 2 Sudoeste 6 Sudoeste 0 1016.6 -1.2 60
2020-01-17 16:00:00 16.8 2 Este 9 Nordeste 0 1016.8 -2.1 64
2020-01-17 15:00:00 16.6 3 Este 9 Nordeste 0 1017.2 -2.4 66
2020-01-17 14:00:00 15.3 3 Nordeste 11 Este 0 1017.8 -1.4 71
2020-01-17 13:00:00 14.2 3 Este 9 Este 0 1018.9 0.3 66
2020-01-17 12:00:00 11.8 3 Este 6 Nordeste 0 1019.6 1.8 73
2020-01-17 11:00:00 10 3 Sudeste 6 Sur 0 1019.2 1.9 76
2020-01-17 10:00:00 8.9 3 Sur 6 Sur 0.1 1018.6 1.9 82
2020-01-17 09:00:00 8.1 3 Sudeste 6 Sudeste 0 1017.8 1.5 78
2020-01-17 08:00:00 7.8 0 Calma 10 Sudeste 0 1017.3 1.4 83
2020-01-17 07:00:00 6.9 4 Sur 7 Sur 0 1016.7 0.9 85
2020-01-17 06:00:00 6.9 3 Sur 6 Oeste 0 1016.3 0.6 85
2020-01-17 05:00:00 5.6 0 Calma 7 Sudeste 0 1015.9 0.1 90
2020-01-17 04:00:00 5.7 3 Sur 8 Sudeste 0 1015.8 -0.1 87
2020-01-17 03:00:00 5.7 0 Calma 11 Sudoeste 0 1015.7 -0.1 87
2020-01-17 02:00:00 5.7 2 Sudoeste 8 Sur 0 1015.8 0.4 87
2020-01-17 01:00:00 7.1 3 Sur 8 Sudeste 0 1015.9 0.8 83
2020-01-17 00:00:00 7.9 0 Calma 7 Sudeste 0 1015.8 1.3 80
2020-01-16 23:00:00 8.3 0 Calma 9 Sudoeste 0 1015.4 1.5 79
2020-01-16 22:00:00 10 7 Sudoeste 14 Sudoeste 0 1015.1 1.7 71
2020-01-16 21:00:00 11 9 Sudoeste 12 Oeste 0 1014.5 1.7 66
2020-01-16 20:00:00 12.5 8 Oeste 10 Oeste 0 1013.9 1.3 57
2020-01-16 19:00:00 14 5 Oeste 10 Oeste 0 1013.4 0.9 51
2020-01-16 18:00:00 16.6 5 Oeste 16 Oeste 0 1012.8 0 48
2020-01-16 17:00:00 18.2 8 Noroeste 16 Oeste 0 1012.6 -0.6 38
2020-01-16 16:00:00 18.9 6 Oeste 15 Oeste 0 1012.5 -1.9 35
2020-01-16 15:00:00 17.9 3 Nordeste 11 Norte 0 1012.8 -2 43
2020-01-16 14:00:00 16.9 0 Calma 6 Oeste 0 1013.2 -1.6 45
2020-01-16 13:00:00 14.7 2 Sudeste 11 Sudeste 0 1014.4 0 52
2020-01-16 12:00:00 12.6 3 Sudeste 10 Este 0 1014.8 0.6 59
2020-01-16 11:00:00 10.2 7 Este 13 Sudeste 0 1014.8 0.9 70
2020-01-16 10:00:00 5.9 2 Sur 5 Oeste 0 1014.4 1 86
2020-01-16 09:00:00 3.7 3 Sur 4 Sur 0 1014.2 1.1 97
2020-01-16 08:00:00 3.7 0 Calma 4 Sur 0 1013.9 0.5 96
2020-01-16 07:00:00 4 2 Sur 6 Sudoeste 0 1013.4 -0.2 94
2020-01-16 06:00:00 4.4 2 Sur 8 Sudeste 0 1013.1 -0.7 94
2020-01-16 05:00:00 4.4 6 Sudeste 8 Sudeste 0 1013.4 -0.3 93
2020-01-16 04:00:00 5 5 Sudeste 7 Sudeste 0 1013.6 -0.3 92
2020-01-16 03:00:00 5.3 3 Sudeste 6 Sudeste 0 1013.8 -0.2 97
2020-01-16 02:00:00 5.6 4 Sur 5 Sudeste 0 1013.7 0.1 95
2020-01-16 01:00:00 7.1 0 Calma 7 Sudeste 0 1013.9 0.2 92
2020-01-16 00:00:00 8 3 Sur 5 Sudoeste 0 1014 0.9 91
2020-01-15 23:00:00 8.9 2 Sur 10 Sur 0 1013.6 0.5 89
2020-01-15 22:00:00 9.8 0 Calma 3 Sudeste 0 1013.7 1.1 85
2020-01-15 21:00:00 11.3 0 Calma 6 Sur 0 1013.1 0.9 80
2020-01-15 20:00:00 12.8 4 Sur 6 Sur 0 1013.1 1.1 72
2020-01-15 19:00:00 15.1 0 Calma 6 Sudeste 0 1012.6 0.7 66
2020-01-15 18:00:00 17.8 0 Calma 5 Oeste 0 1012.2 0.2 55
2020-01-15 17:00:00 18 0 Calma 10 Oeste 0 1012 -0.3 55
2020-01-15 16:00:00 18.2 4 Sudoeste 12 Sudoeste 0 1011.9 -1 54
2020-01-15 15:00:00 17.5 4 Sur 11 Oeste 0 1012 -1.6 59
2020-01-15 14:00:00 15.7 0 Calma 10 Sudeste 0 1012.3 -1.1 64
2020-01-15 13:00:00 13.3 4 Este 9 Sudeste 0 1012.9 0.3 66
2020-01-15 12:00:00 10.7 4 Este 7 Este 0 1013.6 1.5 70
2020-01-15 11:00:00 7.8 0 Calma 8 Sudeste 0 1013.4 1.9 80
2020-01-15 10:00:00 5.3 4 Sudeste 7 Sudeste 0 1012.6 1.9 88
2020-01-15 09:00:00 3 0 Calma 4 Sudeste 0 1012.1 1.7 96
2020-01-15 08:00:00 3.3 2 Sur 6 Sur 0 1011.5 1 94
2020-01-15 07:00:00 3.8 0 Calma 7 Sudeste 0 1010.7 0.1 93
2020-01-15 06:00:00 4.2 4 Sur 8 Sur 0 1010.4 -0.2 92
2020-01-15 05:00:00 4.4 5 Sur 9 Sudeste 0 1010.5 -0.3 90
2020-01-15 04:00:00 5 3 Sur 8 Sudeste 0 1010.6 -0.5 91
2020-01-15 03:00:00 5 4 Sur 8 Sudeste 0 1010.6 -0.4 90
2020-01-15 02:00:00 5.2 0 Calma 8 Sudeste 0 1010.8 -0.1 91
2020-01-15 01:00:00 5.6 4 Sur 6 Sur 0 1011.1 0.6 90
2020-01-15 00:00:00 5.6 3 Sudeste 6 Sudeste 0 1011 0.5 90
2020-01-14 23:00:00 6.1 5 Sur 9 Sur 0 1010.9 0.7 87
2020-01-14 22:00:00 6.9 3 Sudeste 6 Sudoeste 0 1010.5 0.6 85
2020-01-14 21:00:00 8.8 2 Sudoeste 5 Sudoeste 0 1010.5 1 80
2020-01-14 20:00:00 9.8 0 Calma 12 Oeste 0 1010.2 0.9 75
2020-01-14 19:00:00 11.5 8 Oeste 10 Oeste 0 1009.9 1.1 69
2020-01-14 18:00:00 13.3 7 Noroeste 10 Oeste 0 1009.5 0.1 65
2020-01-14 17:00:00 15.2 2 Oeste 6 Este 0 1009.3 -0.6 53
2020-01-14 16:00:00 14.7 4 Sudeste 12 Este 0 1008.8 -2 54
2020-01-14 15:00:00 14.4 3 Sudeste 8 Este 0 1009.4 -2 57
2020-01-14 14:00:00 13.2 4 Este 9 Nordeste 0 1009.9 -1.4 62
2020-01-14 13:00:00 11.4 2 Sudeste 9 Sudeste 0 1010.8 0.1 72
2020-01-14 12:00:00 9.7 2 Sudeste 8 Este 0 1011.4 1.1 76
2020-01-14 11:00:00 7.1 3 Nordeste 8 Nordeste 0 1011.3 1.1 86
2020-01-14 10:00:00 5.5 0 Calma 5 Sur 0 1010.7 0.7 90
2020-01-14 09:00:00 4.2 0 Calma 6 Sur 0 1010.3 0.6 94
2020-01-14 08:00:00 3.8 2 Sur 4 Sudoeste 0 1010.2 0.3 95
2020-01-14 07:00:00 3.1 0 Calma 6 Sudeste 0 1010 -0.1 98
2020-01-14 06:00:00 2.5 0 Calma 4 Sur 0 1009.7 -0.6 98
2020-01-14 05:00:00 2.2 2 Sudeste 6 Sur 0 1009.9 -0.5 99
2020-01-14 04:00:00 2 0 Calma 5 Norte 0 1010.1 -0.7 97
2020-01-14 03:00:00 2.8 0 Calma 4 Sur 0 1010.3 -0.7 97
2020-01-14 02:00:00 3.9 0 Calma 7 Sur 0 1010.4 -0.6 94
2020-01-14 01:00:00 4.2 2 Sur 6 Sudeste 0 1010.8 -0.1 94
2020-01-14 00:00:00 4.7 2 Sur 6 Sudeste 0 1011 0 94
2020-01-13 23:00:00 5.6 2 Sur 9 Sur 0 1011 -0.2 89
2020-01-13 22:00:00 5.7 2 Sur 10 Sur 0 1010.9 -0.1 90
2020-01-13 21:00:00 7.3 6 Sudoeste 9 Sudoeste 0 1011 0.2 82
2020-01-13 20:00:00 9.5 0 Calma 6 Noroeste 0 1011.2 0.6 75
2020-01-13 19:00:00 10.7 8 Noroeste 10 Noroeste 0 1011 0.4 71
2020-01-13 18:00:00 12.6 9 Noroeste 11 Noroeste 0 1010.8 -0.4 65
2020-01-13 17:00:00 15.4 0 Calma 6 Noroeste 0 1010.6 -1.7 51
2020-01-13 16:00:00 15.2 0 Calma 8 Este 0 1010.6 -2.9 52
2020-01-13 15:00:00 15 2 Norte 12 Noroeste 0 1011.2 -3.1 54
2020-01-13 14:00:00 14.1 3 Oeste 9 Norte 0 1012.3 -1.7 59
2020-01-13 13:00:00 11.6 0 Calma 6 Este 0 1013.5 -0.3 72
2020-01-13 12:00:00 9.6 0 Calma 5 Este 0 1014.3 0.7 74
2020-01-13 11:00:00 6.9 0 Calma 5 Sudeste 0 1014 0.8 79
2020-01-13 10:00:00 2.9 0 Calma 6 Nordeste 0 1013.8 0.7 92
2020-01-13 09:00:00 1.5 0 Calma 7 Sur 0 1013.6 0.7 98
2020-01-13 08:00:00 0.5 2 Sur 4 Sur 0 1013.2 0 99
2020-01-13 07:00:00 0.2 0 Calma 4 Sudeste 0 1013.1 -0.8 97
2020-01-13 06:00:00 0.7 5 Sudoeste 10 Sudoeste 0 1012.9 -1.2 99
2020-01-13 05:00:00 0.8 0 Calma 4 Sudoeste 0 1013.2 -1 99
2020-01-13 04:00:00 1.3 0 Calma 5 Sudeste 0 1013.9 -1 98
2020-01-13 03:00:00 2.2 2 Sudeste 5 Sudoeste 0 1014.1 -1.2 97
2020-01-13 02:00:00 2.9 0 Calma 8 Sur 0 1014.2 -0.9 94
2020-01-13 01:00:00 3.1 0 Calma 4 Sudeste 0 1014.9 -0.2 95
2020-01-13 00:00:00 4.2 2 Sudeste 6 Sudeste 0 1015.3 0.5 89
2020-01-12 23:00:00 5.2 0 Calma 4 Sudoeste 0 1015.1 0.3 89
2020-01-12 22:00:00 6 0 Calma 4 Sur 0 1015.1 0.8 83
2020-01-12 21:00:00 7 0 Calma 6 Sur 0 1014.8 0.8 78
2020-01-12 20:00:00 9.5 0 Calma 6 Noroeste 0 1014.8 0.9 67
2020-01-12 19:00:00 11.3 5 Noroeste 7 Noroeste 0 1014.3 0.2 59
2020-01-12 18:00:00 14.2 0 Calma 8 Nordeste 0 1014 -0.7 52
2020-01-12 17:00:00 15.8 4 Nordeste 11 Nordeste 0 1013.9 -1.6 46
2020-01-12 16:00:00 16 3 Nordeste 14 Norte 0 1014.1 -2.7 46
2020-01-12 15:00:00 15.6 4 Nordeste 14 Oeste 0 1014.7 -3.1 54
2020-01-12 14:00:00 14.5 0 Calma 12 Nordeste 0 1015.5 -2.5 63
2020-01-12 13:00:00 12 4 Norte 9 Norte 0 1016.8 -0.8 72
2020-01-12 12:00:00 9.8 2 Norte 6 Este 0 1017.8 0.3 77
2020-01-12 11:00:00 6.8 0 Calma 5 Sudeste 0 1018 0.8 84
2020-01-12 10:00:00 3.7 0 Calma 3 Este 0 1017.6 0.9 93
2020-01-12 09:00:00 1.1 0 Calma 4 Sudoeste 0 1017.5 0.7 99
2020-01-12 08:00:00 1 0 Calma 2 Sur 0 1017.2 0.4 99
2020-01-12 07:00:00 2 0 Calma 4 Sur 0 1016.7 -0.5 98
2020-01-12 06:00:00 1.8 0 Calma 3 Sudoeste 0 1016.8 0.1 98
2020-01-12 05:00:00 2 0 Calma 3 Sudoeste 0 1016.8 0.2 93
2020-01-12 04:00:00 2.8 2 Sudoeste 5 Sudeste 0 1017.2 0.6 96
2020-01-12 03:00:00 3 2 Sudeste 6 Sudeste 0 1016.7 -0.1 95
2020-01-12 02:00:00 3.4 3 Sudeste 8 Sudeste 0 1016.6 0.1 92
2020-01-12 01:00:00 4.2 2 Sur 6 Sur 0 1016.6 0.1 92
2020-01-12 00:00:00 4.3 0 Calma 7 Sur 0 1016.8 1.1 90
2020-01-11 23:00:00 5 5 Sudeste 7 Sudeste 0 1016.5 1 81
2020-01-11 22:00:00 6 4 Sur 7 Sur 0 1016.5 1.6 84
2020-01-11 21:00:00 7.7 0 Calma 8 Norte 0 1015.7 1.3 77
2020-01-11 20:00:00 10.2 5 Sudoeste 7 Sudoeste 0 1015.5 1.2 65
2020-01-11 19:00:00 11.7 0 Calma 3 Sudeste 0 1014.9 0.8 61
2020-01-11 18:00:00 14.6 2 Este 10 Nordeste 0 1014.4 0.1 49
2020-01-11 17:00:00 15.8 4 Norte 15 Norte 0 1014.3 -0.8 47
2020-01-11 16:00:00 15.9 5 Nordeste 15 Este 0 1014.1 -2 42
2020-01-11 15:00:00 15.4 6 Nordeste 15 Nordeste 0 1014.3 -2.3 43
2020-01-11 14:00:00 14.2 6 Este 17 Este 0 1015.1 -1.6 45
2020-01-11 13:00:00 12.8 8 Este 14 Este 0 1016.1 -0.2 54
2020-01-11 12:00:00 10.3 2 Este 8 Este 0 1016.6 1 64
2020-01-11 11:00:00 8 3 Este 7 Este 0 1016.7 1.5 69
2020-01-11 10:00:00 4.9 0 Calma 4 Norte 0 1016.3 1.6 79
2020-01-11 09:00:00 2.4 4 Noroeste 7 Noroeste 0 1015.6 1.1 86
2020-01-11 08:00:00 3.6 0 Calma 15 Nordeste 0 1015.2 0.8 83
2020-01-11 07:00:00 4 0 Calma 12 Norte 0 1014.7 0.4 80
2020-01-11 06:00:00 2.4 3 Norte 6 Norte 0 1014.5 0.3 90
2020-01-11 05:00:00 2.9 4 Noroeste 6 Sudoeste 0 1014.4 0.4 90
2020-01-11 04:00:00 3.7 0 Calma 10 Noroeste 0 1014.3 0.5 85
2020-01-11 03:00:00 4.9 5 Norte 8 Norte 0 1014.2 0.3 76
2020-01-11 02:00:00 4.3 0 Calma 9 Sudeste 0 1014 0.2 80
2020-01-11 01:00:00 5.6 3 Noroeste 7 Sudoeste 0 1013.8 0.1 76
2020-01-11 00:00:00 6.4 3 Sudoeste 15 Sudoeste 0 1013.9 0.6 70
2020-01-10 23:00:00 6.7 0 Calma 10 Norte 0 1013.8 1.2 69
2020-01-10 22:00:00 8 6 Norte 14 Nordeste 0 1013.7 1.9 64
2020-01-10 21:00:00 12.2 14 Nordeste 23 Nordeste 0 1013.3 2.3 43
2020-01-10 20:00:00 12 13 Nordeste 22 Nordeste 0 1012.6 2.2 45
2020-01-10 19:00:00 10.7 3 Norte 8 Norte 0 1011.8 1.6 72
2020-01-10 18:00:00 14.3 3 Nordeste 23 Nordeste 0 1011 0.2 60
2020-01-10 17:00:00 15.8 13 Nordeste 27 Nordeste 0 1010.4 -1.3 52
2020-01-10 16:00:00 15.4 14 Nordeste 22 Nordeste 0 1010.2 -1.9 58
2020-01-10 15:00:00 14.8 14 Este 26 Este 0 1010.8 -2.3 64
2020-01-10 14:00:00 13.5 6 Norte 17 Norte 0 1011.7 -1.6 76
2020-01-10 13:00:00 11.5 3 Norte 11 Norte 0 1012.1 -0.6 82
2020-01-10 12:00:00 10.3 4 Norte 9 Norte 0 1013.1 0.9 85
2020-01-10 11:00:00 8.6 4 Este 7 Este 0 1013.3 1.3 92
2020-01-10 10:00:00 7.2 0 Calma 5 Noroeste 0 1012.7 0.6 97
2020-01-10 09:00:00 5.6 -- -- 7 Norte 0 1012.2 0.4 99
2020-01-10 08:00:00 6.5 -- -- 8 Norte 0 1012 0.1 97
2020-01-10 07:00:00 6.3 -- -- 4 Norte 0 1012.1 0 97
2020-01-10 06:00:00 6.9 -- -- 5 Norte 0 1011.8 -0.5 95
2020-01-10 05:00:00 6.5 -- -- -- -- 0 1011.9 -0.5 96
2020-01-10 04:00:00 5.7 -- -- -- -- 0 1012.1 -0.8 97
2020-01-10 03:00:00 5.5 -- -- -- -- 0 1012.3 -1.1 99
2020-01-10 02:00:00 4.8 -- -- -- -- 0 1012.4 -1 98
2020-01-10 01:00:00 4.8 -- -- -- -- 0 1012.9 -0.1 94
2020-01-10 00:00:00 5.6 -- -- -- -- 0 1013.4 1.1 95
2020-01-09 23:00:00 7.3 -- -- -- -- 0 1013.4 0.6 93
2020-01-09 22:00:00 7.5 -- -- -- -- 0 1013 0.2 93
2020-01-09 21:00:00 8.9 -- -- -- -- 0 1012.3 0.2 84
2020-01-09 20:00:00 9.8 -- -- -- -- 0 1012.8 1 87
2020-01-09 19:00:00 11.1 -- -- -- -- 0 1012.8 0.5 78
2020-01-09 18:00:00 13.3 -- -- -- -- 0 1012.1 -0.3 71
2020-01-09 17:00:00 15.4 -- -- -- -- 0 1011.8 -0.8 62
2020-01-09 16:00:00 15.4 -- -- -- -- 0 1012.3 -1.4 63
2020-01-09 15:00:00 15.1 -- -- -- -- 0 1012.4 -2.3 64
2020-01-09 14:00:00 14.4 -- -- -- -- -- 1012.6 -2 64
2020-01-09 13:00:00 12.8 -- -- -- -- 0 1013.7 -0.5 75
2020-01-09 12:00:00 10.2 -- -- -- -- 0 1014.7 1 78
2020-01-09 11:00:00 7.3 -- -- -- -- 0 1014.6 1.3 89
2020-01-09 10:00:00 4.1 -- -- -- -- 0 1014.2 1.2 98
2020-01-09 09:00:00 2.4 -- -- -- -- 0 1013.7 0.8 99
2020-01-09 08:00:00 2.6 -- -- -- -- 0 1013.3 0.3 99
2020-01-09 07:00:00 2.9 -- -- -- -- 0 1013 -0.4 99
2020-01-09 06:00:00 2.8 -- -- -- -- 0 1012.9 -0.8 99
2020-01-09 05:00:00 3.3 -- -- -- -- 0 1013 -0.3 97
2020-01-09 04:00:00 3.8 -- -- -- -- 0 1013.4 0.1 96
2020-01-09 03:00:00 4.1 -- -- -- -- 0 1013.7 0.2 97
2020-01-09 02:00:00 4.4 -- -- -- -- 0 1013.3 -0.1 96
2020-01-09 01:00:00 5.5 -- -- -- -- 0 1013.3 0.3 89
2020-01-09 00:00:00 5.7 -- -- -- -- 0 1013.5 0.7 93
2020-01-08 23:00:00 6.2 -- -- -- -- 0 1013.4 1 88
2020-01-08 22:00:00 7.7 -- -- -- -- 0 1013 0.9 85
2020-01-08 21:00:00 8.5 -- -- -- -- 0 1012.8 0.9 79
2020-01-08 20:00:00 10.9 -- -- -- -- 0 1012.4 0.4 71
2020-01-08 19:00:00 12.8 -- -- -- -- 0 1012.1 0.1 63
2020-01-08 18:00:00 16.2 -- -- -- -- 0 1011.9 -0.4 51
2020-01-08 17:00:00 18 -- -- -- -- 0 1012 -1 43
2020-01-08 16:00:00 17.3 -- -- -- -- 0 1012 -1.9 45
2020-01-08 15:00:00 16.6 -- -- -- -- 0 1012.3 -2.6 48
2020-01-08 14:00:00 15.2 -- -- -- -- 0 1013 -2.3 51
2020-01-08 13:00:00 13.2 -- -- -- -- 0 1013.9 -1.3 65
2020-01-08 12:00:00 10.1 -- -- -- -- 0 1014.9 0.3 71
2020-01-08 11:00:00 7.1 -- -- -- -- 0 1015.3 0.8 80
2020-01-08 10:00:00 3.9 -- -- -- -- 0 1015.2 0.7 94
2020-01-08 09:00:00 1.7 -- -- -- -- 0 1014.6 0 99
2020-01-08 08:00:00 1.2 -- -- -- -- 0 1014.5 0.1 99
2020-01-08 07:00:00 1.8 -- -- -- -- 0 1014.5 -0.2 99
2020-01-08 06:00:00 1.9 -- -- -- -- 0 1014.6 0 99
2020-01-08 05:00:00 2.5 -- -- -- -- 0 1014.4 -0.1 98
2020-01-08 04:00:00 2.7 -- -- -- -- 0 1014.7 0 99
2020-01-08 03:00:00 3.4 -- -- -- -- 0 1014.6 -0.5 94
2020-01-08 02:00:00 4.7 -- -- -- -- 0 1014.5 -0.7 97
2020-01-08 01:00:00 5 -- -- -- -- 0 1014.7 -0.4 95
2020-01-08 00:00:00 5.8 -- -- -- -- 0 1015.1 0.2 92
2020-01-07 23:00:00 6 -- -- -- -- 0 1015.2 0.3 91
2020-01-07 22:00:00 7.9 -- -- -- -- 0 1015.1 0.6 86
2020-01-07 21:00:00 8.9 -- -- -- -- 0 1014.9 0.6 83
2020-01-07 20:00:00 10.9 -- -- -- -- 0 1014.9 0.7 76
2020-01-07 19:00:00 13.2 -- -- -- -- 0 1014.5 0.3 63
2020-01-07 18:00:00 16.5 -- -- -- -- 0 1014.3 -0.1 55
2020-01-07 17:00:00 18.1 -- -- -- -- 0 1014.2 -1 46
2020-01-07 16:00:00 17.9 -- -- -- -- 0 1014.2 -1.8 46
2020-01-07 15:00:00 17.1 -- -- -- -- 0 1014.4 -2.3 45
2020-01-07 14:00:00 15.5 -- -- -- -- 0 1015.2 -2.1 52
2020-01-07 13:00:00 13.6 -- -- -- -- 0 1016 -0.8 62
2020-01-07 12:00:00 11.3 -- -- -- -- 0 1016.7 0.1 70
2020-01-07 11:00:00 7.9 -- -- -- -- 0 1017.3 1 88
2020-01-07 10:00:00 5.5 -- -- -- -- 0 1016.8 0.5 94
2020-01-07 09:00:00 2.9 -- -- -- -- 0 1016.6 0.3 99
2020-01-07 08:00:00 2.7 -- -- -- -- 0 1016.3 0.2 99
2020-01-07 07:00:00 1.8 -- -- -- -- 0 1016.3 0.5 99
2020-01-07 06:00:00 2.6 -- -- -- -- 0 1016.3 0.5 99
2020-01-07 05:00:00 3.1 -- -- -- -- 0 1016.1 0.3 99
2020-01-07 04:00:00 3.9 -- -- -- -- 0 1015.8 0.2 99
2020-01-07 03:00:00 3.5 -- -- -- -- 0 1015.8 -0.1 98
2020-01-07 02:00:00 4.4 -- -- -- -- 0 1015.8 0.2 99
2020-01-07 01:00:00 5.1 -- -- -- -- 0 1015.6 0.3 95
2020-01-07 00:00:00 5.9 -- -- -- -- 0 1015.9 1.3 96
2020-01-06 23:00:00 7 -- -- -- -- 0 1015.6 1.4 92
2020-01-06 22:00:00 8.1 -- -- -- -- 0 1015.3 1.7 91
2020-01-06 21:00:00 8.2 -- -- -- -- 0 1014.6 1.3 88
2020-01-06 20:00:00 9.8 -- -- -- -- 0 1014.2 1.2 84
2020-01-06 19:00:00 11.9 -- -- -- -- 0 1013.6 0.7 75
2020-01-06 18:00:00 14.5 -- -- -- -- 0 1013.3 0.2 66
2020-01-06 17:00:00 16 -- -- -- -- 0 1013 -1.2 59
2020-01-06 16:00:00 15.7 -- -- -- -- 0 1012.9 -2.2 63
2020-01-06 15:00:00 15.6 -- -- -- -- 0 1013.1 -2.7 65
2020-01-06 14:00:00 14.1 -- -- -- -- 0 1014.2 -1.4 67
2020-01-06 13:00:00 12 -- -- -- -- 0 1015.1 -0.6 77
2020-01-06 12:00:00 9.8 -- -- -- -- 0 1015.8 0.9 84
2020-01-06 11:00:00 5.9 -- -- -- -- 0 1015.6 1.4 93
2020-01-06 10:00:00 3.1 -- -- -- -- 0 1015.7 2.2 99